Avon, Indiana
Current Conditions -  °F | °C
As of 1:03 PM on Thursday 29 Jan 2015 (Local Time) from KEYE Reporting Station
Haze Haze  
Wind Chill: -5°   Ceiling: 1000
Heat Index:   Visibility: 3mi
Dew Point:   Wind: 23mph
Humidity: 89%   Direction: 290°WNW
Pressure: 29.89"   Gusts: 30mph
Location:  39.76°N, 86.4°W
Report Text: KEYE 291803Z AUTO 29020G26KT 3SM BR OVC010 02/00 A2989 RMK AO2 PK WND 28026/1800 CIG 008V013 T00170000
Loading
Personal Weather Stations






























Interactive Weather Map New forecast layout! Learn more

10-Day Weather Forecast

Advertisements
Track Severe Weather on mobile